Blackstone, VA

8:04 PM EDT on June 03, 2015 (GMT -0400)
Farmville Regional | | Change Station
CLOSE
Current Station
Airport
Location: Farmville,
Elevation: 417 ft
Nearby Weather Stations

Elev 417 ft 37.35 °N, 78.44 °W | Updated 9 minutes ago

Overcast
Overcast
60 °F
Feels Like 60 °F
N
6
Wind Variable Wind from NNE

Today
High -- | Low -- °F
--% Chance of Precip.
Yesterday
High -- | Low -- °F
Precip. -- in
5:53 AM 8:27 PM
Full, 98% visible
Pressure 30.11 in
Visibility 2.0 miles
Clouds Overcast 400 ft
Dew Point 60 °F
Humidity 100%
Rainfall 0.61 in
Snow Depth Not available.
UV 0 out of 12
Pollen .70 out of 12
Air Quality Not available.
Flu Activity Sporadic
METAR KFVX 032355Z AUTO 02005KT 2SM BR OVC004 16/16 A3011 RMK AO2 P0001 60003 T01570157 10167 20157

More Conditions Fewer Conditions

Pressure 30.11 in
Visibility 2.0 miles
Clouds Overcast 400 ft
Dew Point 60 °F
Humidity 100%
Rainfall 0.61 in
Snow Depth Not available.
UV 0 out of 12
Pollen .70 out of 12
Air Quality Not available.
Flu Activity Sporadic
METAR KFVX 032355Z AUTO 02005KT 2SM BR OVC004 16/16 A3011 RMK AO2 P0001 60003 T01570157 10167 20157

More Conditions Fewer Conditions

10-Day Weather Forecast

×

Almanac

Astronomy

Jun. 03, 2015 Rise Set
Actual Time
Civil Twilight
Nautical Twilight
Astronomical Twilight
Moon
Length of Visible Light
Length of Day
Tomorrow will be .
, % of the Moon is Illuminated

Today's Extremes

State Highs State Lows

Community

WunderPhotos

Upload Photos

1,826,306 photos uploaded!

WunderBlogs® & News

Nearby

Air Quality

  Air Quality AQ Index Pollutant
Not available.

Snow Depth

Station Depth Elevation

Earthquake Activity

City Distance Mag. Time & Date
Minimum magnitude displayed is 2.5.

Coastal Water Temperatures

Place Temperature

Stations

Nearby Weather Stations

Station Location Temp. Windchill Dew Point Humidity Wind Precip. Elev Updated Type